Warriormine, West Virginia
Current Conditions -  °F | °C
As of 5:15 AM on Tuesday 27 Jan 2015 (Local Time) from KJFZ Reporting Station
Overcast Overcast  
Wind Chill: 14°   Ceiling: 1500
Heat Index: 22°   Visibility: 10mi
Dew Point: 15°   Wind: 6mph
Humidity: 76%   Direction: 330°NNW
Pressure: 29.77"   Gusts: NA
Location:  37.29°N, 81.7°W
Report Text: KJFZ 271015Z AUTO 33005KT 10SM OVC015 M06/M09 A2977 RMK AO2 T10571093
Loading
Personal Weather Stations






























Interactive Weather Map New forecast layout! Learn more

10-Day Weather Forecast

Advertisements
Track Severe Weather on mobile